Time;durP1;ratioP1;P1;durP2;ratioP2;P2;SDS_P1;SDS_P2;PMS_P1;PMS_P2;Temp;Humidity;BMP_temperature;BMP_pressure;BME280_temperature;BME280_humidity;BME280_pressure;Samples;Min_cycle;Max_cycle;Signal;HPM_P1;HPM_P2
2022/01/15 00:03:15;;;;;;;108.53;26.63;;;;;;;-1.34;100.00;102026.31;20955079;28;20108;-80
2022/01/15 00:13:26;;;;;;;105.22;27.45;;;;;;;-1.28;100.00;102007.81;20967781;28;20702;-81
2022/01/15 00:23:27;;;;;;;126.15;28.25;;;;;;;-1.15;100.00;102001.66;20943994;28;20288;-81
2022/01/15 00:33:31;;;;;;;168.57;33.83;;;;;;;-1.06;100.00;102000.50;20951506;28;20045;-81
2022/01/15 00:43:32;;;;;;;187.25;34.63;;;;;;;-1.09;100.00;101986.63;20929993;28;20049;-81
2022/01/15 00:53:34;;;;;;;157.35;31.10;;;;;;;-1.23;100.00;101982.38;20926106;28;20102;-81
2022/01/15 01:03:36;;;;;;;124.97;31.35;;;;;;;-1.31;100.00;101979.34;20937670;28;20143;-81
2022/01/15 01:23:49;;;;;;;188.88;35.13;;;;;;;-1.36;100.00;101979.09;20950513;28;20511;-80
2022/01/15 01:33:54;;;;;;;161.77;34.08;;;;;;;-1.21;100.00;101971.38;20915566;28;20057;-80
2022/01/15 01:44:00;;;;;;;146.40;33.35;;;;;;;-1.26;100.00;101977.06;20915157;28;20049;-81
2022/01/15 01:54:06;;;;;;;198.02;39.22;;;;;;;-1.52;100.00;101963.59;20914582;28;20051;-81
2022/01/15 02:04:08;;;;;;;213.57;40.08;;;;;;;-1.45;100.00;101960.56;20913073;28;20543;-81
2022/01/15 02:14:09;;;;;;;130.60;35.38;;;;;;;-1.52;100.00;101957.56;20944407;28;20090;-82
2022/01/15 02:24:11;;;;;;;168.00;39.15;;;;;;;-1.41;100.00;101959.06;20954154;28;20099;-81
2022/01/15 02:34:12;;;;;;;178.45;40.15;;;;;;;-1.43;100.00;101948.72;20922364;28;20704;-80
2022/01/15 02:44:17;;;;;;;195.75;39.22;;;;;;;-1.45;100.00;101941.72;20903648;28;20041;-81
2022/01/15 02:54:18;;;;;;;;;;;;;;;-1.46;100.00;101935.69;20899711;28;20052;-80
2022/01/15 03:04:20;;;;;;;190.68;38.70;;;;;;;-1.51;100.00;101939.69;20895043;28;19933;-81
2022/01/15 03:14:22;;;;;;;150.80;38.75;;;;;;;-1.39;100.00;101935.25;20908274;28;20099;-81
2022/01/15 03:24:23;;;;;;;155.25;39.03;;;;;;;-1.33;100.00;101915.03;20958141;28;20052;-81
2022/01/15 03:34:25;;;;;;;186.75;40.88;;;;;;;-1.17;100.00;101908.19;20949910;28;20106;-81
2022/01/15 03:44:26;;;;;;;141.85;40.83;;;;;;;-1.28;100.00;101893.88;20931663;28;20460;-81
2022/01/15 03:54:28;;;;;;;138.02;39.58;;;;;;;-1.18;100.00;101885.88;20948686;28;20056;-80
2022/01/15 04:04:30;;;;;;;119.78;37.22;;;;;;;-1.28;100.00;101873.31;20948115;28;20052;-81
2022/01/15 04:14:31;;;;;;;106.43;33.80;;;;;;;-1.18;100.00;101862.75;20930411;28;20094;-81
2022/01/15 04:24:33;;;;;;;115.28;35.47;;;;;;;-1.06;100.00;101860.81;20953910;28;20118;-82
2022/01/15 04:34:34;;;;;;;98.43;29.92;;;;;;;-0.98;100.00;101867.28;20948356;28;20041;-81
2022/01/15 04:44:37;;;;;;;99.82;29.73;;;;;;;-0.94;100.00;101853.78;20927236;28;20056;-80
2022/01/15 04:54:39;;;;;;;90.47;27.90;;;;;;;-0.84;100.00;101860.31;20941195;28;20064;-81
2022/01/15 05:04:41;;;;;;;77.72;24.58;;;;;;;-0.95;100.00;101857.16;20926853;28;20106;-81
2022/01/15 05:14:45;;;;;;;87.10;24.37;;;;;;;-0.94;100.00;101853.78;20946972;28;20049;-81
2022/01/15 05:24:46;;;;;;;69.50;22.63;;;;;;;-0.91;100.00;101859.09;20941929;28;20052;-82
2022/01/15 05:34:48;;;;;;;85.30;24.60;;;;;;;-0.97;100.00;101853.63;20944108;28;20045;-82
2022/01/15 05:44:49;;;;;;;71.32;22.58;;;;;;;-0.98;100.00;101851.84;20923733;28;20113;-81
2022/01/15 05:54:55;;;;;;;87.32;22.02;;;;;;;-1.03;100.00;101850.72;20916525;28;20544;-82
2022/01/15 06:04:56;;;;;;;80.30;22.45;;;;;;;-1.07;100.00;101849.66;20927622;28;20066;-81
2022/01/15 06:14:59;;;;;;;87.68;21.48;;;;;;;-1.12;100.00;101851.09;20908711;28;20071;-81
2022/01/15 06:25:03;;;;;;;83.70;22.60;;;;;;;-1.19;100.00;101853.25;20925360;28;20106;-81
2022/01/15 06:35:07;;;;;;;72.50;22.43;;;;;;;-1.26;100.00;101834.03;20927662;28;20137;-81
2022/01/15 06:45:09;;;;;;;74.93;21.65;;;;;;;-1.35;100.00;101836.09;20913782;28;20333;-81
2022/01/15 06:55:11;;;;;;;61.67;22.67;;;;;;;-1.46;100.00;101835.50;20926705;28;20056;-80
2022/01/15 07:05:13;;;;;;;70.43;24.85;;;;;;;-1.23;100.00;101833.34;20922817;28;20061;-82
2022/01/15 07:15:16;;;;;;;58.08;22.80;;;;;;;-1.27;100.00;101831.38;20920008;28;20048;-82
2022/01/15 07:25:18;;;;;;;63.58;23.45;;;;;;;-1.38;100.00;101823.97;20920664;28;20402;-80
2022/01/15 07:35:20;;;;;;;64.15;24.13;;;;;;;-1.46;100.00;101825.22;20916533;28;20053;-81
2022/01/15 07:45:21;;;;;;;72.00;27.20;;;;;;;-1.41;100.00;101828.94;20945571;28;20060;-81
2022/01/15 07:55:24;;;;;;;83.80;28.83;;;;;;;-1.33;100.00;101827.69;20923129;28;20057;-81
2022/01/15 08:05:35;;;;;;;76.80;28.40;;;;;;;-1.19;100.00;101822.44;20904859;28;20051;-82
2022/01/15 08:15:37;;;;;;;69.65;27.38;;;;;;;-1.19;100.00;101810.47;20934400;28;20132;-81
2022/01/15 08:25:39;;;;;;;72.18;24.42;;;;;;;-1.14;100.00;101819.31;20911519;28;20041;-81
2022/01/15 08:35:41;;;;;;;76.82;24.90;;;;;;;-0.89;100.00;101805.19;20903434;28;20048;-81
2022/01/15 08:45:43;;;;;;;64.95;22.73;;;;;;;-0.83;100.00;101814.09;20949691;28;20098;-81
2022/01/15 08:55:45;;;;;;;67.88;22.88;;;;;;;-0.69;100.00;101826.81;20951088;28;20045;-81
2022/01/15 09:06:08;;;;;;;69.63;22.35;;;;;;;-0.58;100.00;101812.81;20922593;28;20033;-82
2022/01/15 09:16:10;;;;;;;74.65;22.52;;;;;;;-0.46;100.00;101807.44;20921961;28;20123;-82
2022/01/15 09:26:22;;;;;;;69.70;24.35;;;;;;;-0.34;100.00;101792.59;20939693;28;20052;-82
2022/01/15 09:36:23;;;;;;;69.22;23.13;;;;;;;-0.35;100.00;101807.16;20938192;28;20056;-83
2022/01/15 09:46:26;;;;;;;57.83;22.42;;;;;;;-0.24;100.00;101789.69;20943467;28;20044;-83
2022/01/15 09:56:27;;;;;;;61.45;23.45;;;;;;;-0.08;100.00;101770.75;20941922;28;20045;-82
2022/01/15 10:06:29;;;;;;;59.92;22.40;;;;;;;-0.03;100.00;101765.00;20938105;28;20136;-82
2022/01/15 10:16:31;;;;;;;52.25;20.10;;;;;;;-0.06;100.00;101764.84;20937779;28;20079;-81
2022/01/15 10:26:35;;;;;;;57.20;23.58;;;;;;;0.08;100.00;101749.19;20935376;28;20077;-82
2022/01/15 10:36:37;;;;;;;60.08;22.83;;;;;;;0.17;100.00;101732.50;20929732;28;20045;-82
2022/01/15 10:46:38;;;;;;;58.45;24.60;;;;;;;0.31;100.00;101727.13;20932739;28;20094;-82
2022/01/15 10:56:40;;;;;;;53.30;22.38;;;;;;;0.37;100.00;101724.81;20931480;28;20044;-83
2022/01/15 11:06:42;;;;;;;59.22;22.35;;;;;;;0.25;100.00;101702.84;20898338;28;20045;-81
2022/01/15 11:16:44;;;;;;;55.00;23.30;;;;;;;0.40;100.00;101700.09;20909445;28;20567;-83
2022/01/15 11:26:52;;;;;;;62.22;24.55;;;;;;;0.55;100.00;101683.56;20925958;28;20041;-81
2022/01/15 11:36:54;;;;;;;56.22;23.63;;;;;;;0.32;100.00;101680.81;20923548;28;20052;-82
2022/01/15 11:46:57;;;;;;;56.08;23.67;;;;;;;0.42;100.00;101680.44;20931489;28;20095;-81
2022/01/15 11:57:00;;;;;;;64.87;26.17;;;;;;;0.45;100.00;101664.25;20932009;28;20045;-82
2022/01/15 12:07:07;;;;;;;60.90;25.42;;;;;;;0.54;100.00;101656.94;20941339;28;20045;-82
2022/01/15 12:17:31;;;;;;;60.85;26.83;;;;;;;0.62;100.00;101642.66;20896189;28;20041;-82
2022/01/15 12:27:34;;;;;;;66.97;29.87;;;;;;;0.88;100.00;101628.34;20907984;28;20619;-82
2022/01/15 12:37:53;;;;;;;56.03;23.85;;;;;;;0.72;100.00;101619.09;20926208;28;20037;-82
2022/01/15 12:47:56;;;;;;;61.33;28.98;;;;;;;0.82;100.00;101611.75;20929200;28;20052;-82
2022/01/15 12:57:57;;;;;;;60.03;27.90;;;;;;;0.77;100.00;101593.50;20929550;28;20497;-82
2022/01/15 13:08:02;;;;;;;53.53;26.77;;;;;;;0.81;100.00;101568.72;20922593;28;20135;-81
2022/01/15 13:18:10;;;;;;;60.30;28.05;;;;;;;1.02;100.00;101559.31;20904236;28;20053;-81
2022/01/15 13:28:12;;;;;;;58.60;28.48;;;;;;;1.10;100.00;101541.56;20922209;28;20045;-81
2022/01/15 13:38:16;;;;;;;59.45;28.33;;;;;;;0.90;100.00;101531.31;20902204;28;20051;-82
2022/01/15 13:48:24;;;;;;;56.87;28.00;;;;;;;0.93;100.00;101543.47;20887073;28;20090;-81
2022/01/15 13:58:26;;;;;;;65.72;30.58;;;;;;;1.08;100.00;101540.63;20913150;28;20060;-82
2022/01/15 14:08:27;;;;;;;65.85;30.90;;;;;;;1.13;100.00;101550.31;20897635;28;20041;-83
2022/01/15 14:18:41;;;;;;;65.43;30.45;;;;;;;1.15;100.00;101540.06;20911783;28;20106;-83
2022/01/15 14:28:42;;;;;;;70.07;30.33;;;;;;;1.20;100.00;101523.97;20890542;28;20045;-83
2022/01/15 14:38:44;;;;;;;68.10;30.65;;;;;;;1.26;100.00;101516.47;20895726;28;20159;-82
2022/01/15 14:48:45;;;;;;;69.80;32.85;;;;;;;1.44;100.00;101515.44;20925904;28;20111;-82
2022/01/15 14:58:47;;;;;;;71.50;32.45;;;;;;;1.37;100.00;101509.13;20899342;28;20099;-82
2022/01/15 15:08:49;;;;;;;65.28;30.35;;;;;;;1.45;100.00;101509.47;20900343;28;20482;-82
2022/01/15 15:18:52;;;;;;;71.70;31.88;;;;;;;1.35;100.00;101497.03;20934321;28;20045;-82
2022/01/15 15:28:55;;;;;;;70.00;31.37;;;;;;;1.32;100.00;101502.03;20919442;28;20567;-82
2022/01/15 15:39:02;;;;;;;70.45;33.38;;;;;;;1.42;100.00;101499.00;20930383;28;20095;-82
2022/01/15 15:49:06;;;;;;;70.88;32.83;;;;;;;1.41;100.00;101492.09;20911795;28;20041;-82
2022/01/15 15:59:08;;;;;;;64.45;30.70;;;;;;;1.38;100.00;101489.38;20911093;28;20207;-82
2022/01/15 16:09:09;;;;;;;61.47;28.77;;;;;;;1.31;100.00;101490.84;20928077;28;20118;-82
2022/01/15 16:19:10;;;;;;;60.65;30.95;;;;;;;1.40;100.00;101495.50;20921631;28;20056;-83
2022/01/15 16:29:12;;;;;;;58.58;28.95;;;;;;;1.36;100.00;101489.31;20933261;28;20049;-82
2022/01/15 16:39:14;;;;;;;58.05;27.27;;;;;;;1.32;100.00;101491.72;20914502;28;20068;-82
2022/01/15 16:49:15;;;;;;;53.33;25.95;;;;;;;1.41;100.00;101495.53;20928908;28;20552;-82
2022/01/15 16:59:18;;;;;;;60.75;28.20;;;;;;;1.36;100.00;101483.28;20908137;28;20048;-82
2022/01/15 17:09:20;;;;;;;57.20;25.35;;;;;;;1.34;100.00;101479.75;20915869;28;20040;-81
2022/01/15 17:19:22;;;;;;;53.72;26.73;;;;;;;1.32;100.00;101481.41;20927496;28;20045;-82
2022/01/15 17:29:25;;;;;;;60.30;28.08;;;;;;;1.43;100.00;101477.53;20945663;28;20476;-82
2022/01/15 17:39:27;;;;;;;62.78;28.60;;;;;;;1.32;100.00;101461.66;20911644;28;20091;-81
2022/01/15 17:49:31;;;;;;;62.85;27.85;;;;;;;1.36;100.00;101453.19;20924849;28;20067;-84
2022/01/15 17:59:32;;;;;;;62.50;29.52;;;;;;;1.38;100.00;101455.84;20900537;28;20048;-84
2022/01/15 18:09:34;;;;;;;56.67;25.42;;;;;;;1.31;100.00;101466.75;20931311;28;20110;-83
2022/01/15 18:19:39;;;;;;;54.60;26.42;;;;;;;1.33;100.00;101447.03;20904013;28;20041;-85
2022/01/15 18:29:41;;;;;;;62.92;28.80;;;;;;;1.40;100.00;101454.22;20912743;28;20505;-84
2022/01/15 18:39:43;;;;;;;58.47;26.73;;;;;;;1.34;100.00;101443.63;20957349;28;20126;-83
2022/01/15 18:49:45;;;;;;;60.83;28.63;;;;;;;1.35;100.00;101455.75;20947763;28;20056;-84
2022/01/15 18:59:46;;;;;;;62.38;29.45;;;;;;;1.47;100.00;101445.88;20956290;28;20049;-84
2022/01/15 19:09:48;;;;;;;69.35;30.80;;;;;;;1.46;100.00;101444.13;20951508;28;20048;-83
2022/01/15 19:20:04;;;;;;;61.88;29.20;;;;;;;1.55;100.00;101467.69;20982040;28;20099;-84
2022/01/15 19:31:08;;;;;;;56.92;26.08;;;;;;;1.45;100.00;101568.81;20944791;28;20049;-84
2022/01/15 19:41:25;;;;;;;56.35;26.63;;;;;;;1.50;100.00;101471.81;20946417;28;20052;-84
2022/01/15 19:52:41;;;;;;;59.80;27.40;;;;;;;1.51;100.00;101298.06;20964145;28;20098;-84
2022/01/15 20:03:22;;;;;;;54.28;24.50;;;;;;;1.44;100.00;101347.72;20708562;28;20046;-84
2022/01/15 20:13:56;;;;;;;65.75;28.45;;;;;;;1.39;100.00;101363.03;20688907;28;20041;-85
2022/01/15 20:24:49;;;;;;;64.88;28.17;;;;;;;1.34;100.00;101312.03;20951091;28;20061;-85
2022/01/15 20:35:34;;;;;;;65.45;29.67;;;;;;;1.41;100.00;101363.06;20909871;28;20072;-85
2022/01/15 20:45:51;;;;;;;61.80;26.23;;;;;;;1.38;100.00;101373.25;20925292;28;20060;-84
2022/01/15 20:56:37;;;;;;;71.18;28.77;;;;;;;1.46;100.00;101397.66;20943014;28;20044;-84
2022/01/15 21:07:18;;;;;;;61.90;27.10;;;;;;;1.46;100.00;101383.06;20918628;28;20079;-85
2022/01/15 21:17:21;;;;;;;67.18;29.00;;;;;;;1.47;100.00;101363.28;20906850;28;20049;-84
2022/01/15 21:27:22;;;;;;;65.30;27.55;;;;;;;1.47;100.00;101383.94;20903606;28;20512;-83
2022/01/15 21:37:24;;;;;;;56.60;25.58;;;;;;;1.56;100.00;101399.75;20916642;28;20040;-84
2022/01/15 21:47:30;;;;;;;61.80;27.80;;;;;;;1.61;100.00;101393.06;20898636;28;20076;-84
2022/01/15 21:57:31;;;;;;;57.75;26.77;;;;;;;1.62;100.00;101379.31;20940309;28;20080;-84
2022/01/15 22:07:33;;;;;;;61.55;27.02;;;;;;;1.64;100.00;101403.50;20900923;28;20103;-84
2022/01/15 22:17:35;;;;;;;62.15;28.67;;;;;;;1.65;100.00;101391.47;20905005;28;20562;-85
2022/01/15 22:27:37;;;;;;;62.08;29.40;;;;;;;1.60;100.00;101375.81;20918356;28;20057;-84
2022/01/15 22:37:39;;;;;;;65.63;28.40;;;;;;;1.60;100.00;101382.69;20923998;28;20045;-84
2022/01/15 22:47:42;;;;;;;66.90;29.80;;;;;;;1.58;100.00;101380.03;20906927;28;20102;-84
2022/01/15 22:57:46;;;;;;;58.72;27.70;;;;;;;1.60;100.00;101375.81;20925800;28;20433;-84
2022/01/15 23:07:48;;;;;;;66.75;27.67;;;;;;;1.60;100.00;101364.63;20919905;28;20079;-84
2022/01/15 23:17:51;;;;;;;62.20;27.10;;;;;;;1.57;100.00;101342.13;20909016;28;20548;-85
2022/01/15 23:27:53;;;;;;;60.65;26.65;;;;;;;1.53;100.00;101363.50;20918003;28;20091;-84
2022/01/15 23:37:55;;;;;;;63.85;27.27;;;;;;;1.48;100.00;101349.56;20918967;28;20139;-85
2022/01/15 23:47:58;;;;;;;76.68;30.42;;;;;;;1.44;100.00;101361.50;20887615;23;20052;-71
2022/01/15 23:57:59;;;;;;;101.65;38.15;;;;;;;1.41;100.00;101360.50;20869592;28;20106;-72
